Time;durP1;ratioP1;P1;durP2;ratioP2;P2;SDS_P1;SDS_P2;PMS_P1;PMS_P2;Temp;Humidity;BMP_temperature;BMP_pressure;BME280_temperature;BME280_humidity;BME280_pressure;Samples;Min_cycle;Max_cycle;Signal;HPM_P1;HPM_P2
2022/05/22 00:02:29;;;;;;;8.17;4.57;;;16.60;58.70;;;;;;5063151;28;20189;-89
2022/05/22 00:04:57;;;;;;;12.20;4.57;;;16.60;58.40;;;;;;5060140;28;20231;-90
2022/05/22 00:07:25;;;;;;;14.47;6.27;;;16.60;58.40;;;;;;5058614;28;20266;-89
2022/05/22 00:09:57;;;;;;;16.07;5.70;;;16.50;58.50;;;;;;5059319;28;20270;-89
2022/05/22 00:12:25;;;;;;;15.23;5.57;;;16.40;58.70;;;;;;5064009;28;20228;-88
2022/05/22 00:15:06;;;;;;;10.87;4.70;;;16.40;58.90;;;;;;5064021;28;20211;-89
2022/05/22 00:17:40;;;;;;;6.83;3.93;;;16.40;59.30;;;;;;5059151;28;20267;-90
2022/05/22 00:20:09;;;;;;;9.23;4.17;;;16.30;59.20;;;;;;5060308;28;20233;-89
2022/05/22 00:22:37;;;;;;;11.03;4.67;;;16.30;59.30;;;;;;5052963;28;21179;-88
2022/05/22 00:25:10;;;;;;;12.20;5.30;;;16.30;59.50;;;;;;5060915;28;20229;-89
2022/05/22 00:27:39;;;;;;;10.97;4.53;;;16.30;59.80;;;;;;5057145;28;20235;-89
2022/05/22 00:30:09;;;;;;;10.73;4.47;;;16.20;59.60;;;;;;5059730;28;20238;-90
2022/05/22 00:32:36;;;;;;;14.07;5.80;;;16.20;59.70;;;;;;5057992;28;20294;-90
2022/05/22 00:35:05;;;;;;;8.57;4.80;;;16.10;59.40;;;;;;5060661;28;20628;-90
2022/05/22 00:37:38;;;;;;;13.20;5.13;;;16.10;59.60;;;;;;5060862;28;20271;-90
2022/05/22 00:40:12;;;;;;;10.50;4.37;;;16.10;60.10;;;;;;5045015;28;20213;-90
2022/05/22 00:42:43;;;;;;;9.97;4.47;;;16.00;60.20;;;;;;5059683;28;20213;-90
2022/05/22 00:45:20;;;;;;;9.83;4.93;;;16.10;60.20;;;;;;5047945;28;20282;-89
2022/05/22 00:47:50;;;;;;;14.47;5.33;;;16.00;60.70;;;;;;5038978;28;20206;-90
2022/05/22 00:50:22;;;;;;;8.43;4.47;;;16.00;60.30;;;;;;5043771;28;20299;-90
2022/05/22 00:52:54;;;;;;;17.47;6.33;;;16.00;60.70;;;;;;5055463;28;20247;-90
2022/05/22 00:55:31;;;;;;;12.97;5.60;;;15.90;60.40;;;;;;5038134;28;20202;-91
2022/05/22 00:58:05;;;;;;;17.53;6.40;;;15.90;60.20;;;;;;5042307;28;20279;-91
2022/05/22 01:00:43;;;;;;;9.67;4.73;;;15.90;60.20;;;;;;5061010;28;20201;-90
2022/05/22 01:03:32;;;;;;;10.87;4.23;;;15.90;60.40;;;;;;5065525;28;20223;-90
2022/05/22 01:06:24;;;;;;;10.40;4.40;;;15.90;60.80;;;;;;5043429;28;20755;-90
2022/05/22 01:08:52;;;;;;;8.33;4.30;;;15.80;61.20;;;;;;5050005;28;20232;-90
2022/05/22 01:11:22;;;;;;;10.20;4.77;;;15.80;60.40;;;;;;5051750;28;20242;-90
2022/05/22 01:13:58;;;;;;;14.43;5.57;;;15.80;60.60;;;;;;5061273;28;20216;-90
2022/05/22 01:16:30;;;;;;;12.43;4.93;;;15.80;60.60;;;;;;5062349;28;20202;-90
2022/05/22 01:22:00;;;;;;;12.43;5.70;;;15.70;61.10;;;;;;5047836;28;20193;-90
2022/05/22 01:24:30;;;;;;;9.97;4.60;;;15.70;61.10;;;;;;5061953;28;20210;-90
2022/05/22 01:27:01;;;;;;;10.07;4.83;;;15.60;61.00;;;;;;5062506;28;20208;-90
2022/05/22 01:29:29;;;;;;;8.03;4.57;;;15.70;61.20;;;;;;5061891;28;20226;-89
2022/05/22 01:31:57;;;;;;;9.33;5.20;;;15.60;61.00;;;;;;5054334;28;20209;-89
2022/05/22 01:34:25;;;;;;;11.43;5.40;;;15.60;61.40;;;;;;5040158;28;20278;-89
2022/05/22 01:36:57;;;;;;;10.47;4.87;;;15.50;61.40;;;;;;5059474;28;20262;-90
2022/05/22 01:39:26;;;;;;;12.63;5.63;;;15.50;61.70;;;;;;5056249;28;20242;-90
2022/05/22 01:41:54;;;;;;;11.17;5.10;;;15.50;61.80;;;;;;5055794;28;20213;-89
2022/05/22 01:44:25;;;;;;;9.80;4.43;;;15.50;61.80;;;;;;5049995;28;20295;-89
2022/05/22 01:46:54;;;;;;;9.80;4.37;;;15.50;61.80;;;;;;5057915;28;20196;-90
2022/05/22 01:49:27;;;;;;;11.17;5.07;;;15.40;61.30;;;;;;5060344;28;20210;-90
2022/05/22 01:51:59;;;;;;;12.40;5.30;;;15.40;61.30;;;;;;5046551;28;20204;-90
2022/05/22 01:54:28;;;;;;;10.57;4.60;;;15.40;61.30;;;;;;5059156;28;20694;-89
2022/05/22 01:56:56;;;;;;;17.53;6.27;;;15.30;60.90;;;;;;5054860;28;20208;-90
2022/05/22 01:59:27;;;;;;;9.50;4.80;;;15.40;61.40;;;;;;5059815;28;20199;-88
2022/05/22 02:02:00;;;;;;;9.27;4.80;;;15.30;62.10;;;;;;5046249;28;20189;-88
2022/05/22 02:04:30;;;;;;;8.90;4.70;;;15.30;62.20;;;;;;5058127;28;20208;-91
2022/05/22 02:09:49;;;;;;;10.70;5.40;;;15.30;61.70;;;;;;5060723;28;20300;-90
2022/05/22 02:12:19;;;;;;;11.00;5.87;;;15.20;61.80;;;;;;5060733;28;20200;-89
2022/05/22 02:14:47;;;;;;;12.30;5.53;;;15.20;62.10;;;;;;5059350;28;20269;-89
2022/05/22 02:17:15;;;;;;;12.73;5.57;;;15.20;62.60;;;;;;5057363;28;20235;-89
2022/05/22 02:19:42;;;;;;;11.97;5.70;;;15.10;62.40;;;;;;5057761;28;20216;-88
2022/05/22 02:22:15;;;;;;;13.17;5.93;;;15.10;62.30;;;;;;5058029;28;20228;-87
2022/05/22 02:24:44;;;;;;;11.47;5.33;;;15.10;62.90;;;;;;5057933;28;20250;-89
2022/05/22 02:27:13;;;;;;;10.17;5.20;;;15.10;62.60;;;;;;5057899;28;20210;-87
2022/05/22 02:29:42;;;;;;;10.07;5.67;;;15.00;62.70;;;;;;5056910;28;20208;-89
2022/05/22 02:32:11;;;;;;;9.23;4.77;;;15.00;62.90;;;;;;5056778;28;20319;-88
2022/05/22 02:34:39;;;;;;;16.97;6.43;;;15.00;63.00;;;;;;5054885;28;20222;-90
2022/05/22 02:37:06;;;;;;;11.40;5.07;;;15.00;63.10;;;;;;5056654;28;20238;-89
2022/05/22 02:39:36;;;;;;;14.90;5.87;;;14.90;63.10;;;;;;5053318;28;20206;-89
2022/05/22 02:42:05;;;;;;;9.67;5.00;;;14.90;63.20;;;;;;5062137;28;20648;-89
2022/05/22 02:44:41;;;;;;;13.77;6.10;;;14.90;63.00;;;;;;5056924;28;20282;-89
2022/05/22 02:47:17;;;;;;;10.13;5.23;;;14.90;62.90;;;;;;5056706;28;20207;-91
2022/05/22 02:49:45;;;;;;;9.80;4.73;;;14.90;63.00;;;;;;5057037;28;20207;-89
2022/05/22 02:52:14;;;;;;;11.50;5.40;;;14.80;63.20;;;;;;5055095;28;20234;-89
2022/05/22 02:54:44;;;;;;;15.70;6.57;;;14.80;64.20;;;;;;5055799;28;20227;-88
2022/05/22 02:57:12;;;;;;;13.10;5.60;;;14.80;63.70;;;;;;5054333;28;20692;-89
2022/05/22 02:59:49;;;;;;;14.40;6.10;;;14.70;63.50;;;;;;5056159;28;20211;-87
2022/05/22 03:02:23;;;;;;;10.63;5.17;;;14.70;63.80;;;;;;5060269;28;20238;-89
2022/05/22 03:04:50;;;;;;;11.10;4.90;;;14.70;64.00;;;;;;5060217;28;20211;-89
2022/05/22 03:07:20;;;;;;;14.20;5.90;;;14.70;63.40;;;;;;5060018;28;20621;-89
2022/05/22 03:09:53;;;;;;;8.97;5.37;;;14.70;63.60;;;;;;5057766;28;20220;-89
2022/05/22 03:12:27;;;;;;;13.07;6.33;;;14.60;63.40;;;;;;5055511;28;20786;-89
2022/05/22 03:15:15;;;;;;;14.03;6.30;;;14.60;63.20;;;;;;5041415;28;20206;-90
2022/05/22 03:17:43;;;;;;;9.73;5.33;;;14.60;63.50;;;;;;5061673;28;20215;-88
2022/05/22 03:20:12;;;;;;;10.70;4.90;;;14.60;63.80;;;;;;5063536;28;20277;-90
2022/05/22 03:22:40;;;;;;;8.70;4.80;;;14.60;64.10;;;;;;5051503;28;20270;-90
2022/05/22 03:25:11;;;;;;;10.17;4.67;;;14.60;63.90;;;;;;5065771;28;20227;-89
2022/05/22 03:27:38;;;;;;;14.20;5.23;;;14.50;63.70;;;;;;5064853;28;20204;-91
2022/05/22 03:30:07;;;;;;;11.90;5.20;;;14.50;63.30;;;;;;5064992;28;20188;-90
2022/05/22 03:32:36;;;;;;;14.93;5.70;;;14.50;63.50;;;;;;5061653;28;20205;-89
2022/05/22 03:35:03;;;;;;;10.50;5.37;;;14.50;63.60;;;;;;5060864;28;20257;-89
2022/05/22 03:37:31;;;;;;;10.43;4.53;;;14.40;64.70;;;;;;5060464;28;20210;-89
2022/05/22 03:39:59;;;;;;;12.30;5.50;;;14.50;64.20;;;;;;5058085;28;20208;-89
2022/05/22 03:42:31;;;;;;;11.53;4.60;;;14.40;64.20;;;;;;5060102;28;20298;-89
2022/05/22 03:45:06;;;;;;;9.23;4.53;;;14.40;64.20;;;;;;5059031;28;20266;-88
2022/05/22 03:47:34;;;;;;;11.00;4.77;;;14.30;64.20;;;;;;5057910;28;20637;-89
2022/05/22 03:50:06;;;;;;;9.30;4.03;;;14.40;64.20;;;;;;5057423;28;20207;-88
2022/05/22 03:52:35;;;;;;;9.73;4.57;;;14.40;64.60;;;;;;5058272;28;20207;-89
2022/05/22 03:55:10;;;;;;;14.33;5.63;;;14.30;64.60;;;;;;5063912;28;20562;-88
2022/05/22 03:57:41;;;;;;;9.03;4.43;;;14.30;64.90;;;;;;5059097;28;20204;-89
2022/05/22 04:00:12;;;;;;;8.63;4.03;;;14.30;65.40;;;;;;5057202;28;20239;-90
2022/05/22 04:02:41;;;;;;;10.17;4.60;;;14.30;65.40;;;;;;5057387;28;20210;-90
2022/05/22 04:05:10;;;;;;;7.43;3.97;;;14.20;65.10;;;;;;5066486;28;20210;-88
2022/05/22 04:07:40;;;;;;;9.07;4.40;;;14.20;65.40;;;;;;5065357;28;20282;-88
2022/05/22 04:10:09;;;;;;;7.77;4.07;;;14.20;65.60;;;;;;5063168;28;20231;-85
2022/05/22 04:12:43;;;;;;;8.53;4.17;;;14.20;65.40;;;;;;5063291;28;20200;-87
2022/05/22 04:15:14;;;;;;;10.40;4.30;;;14.20;65.60;;;;;;5063192;28;20237;-89
2022/05/22 04:17:41;;;;;;;9.20;4.03;;;14.20;65.10;;;;;;5061905;28;20215;-89
2022/05/22 04:20:11;;;;;;;9.20;4.03;;;14.20;65.40;;;;;;5061589;28;20222;-89
2022/05/22 04:25:11;;;;;;;7.97;3.87;;;14.10;65.50;;;;;;5060667;28;20219;-88
2022/05/22 04:25:26;;;;;;;10.93;4.80;;;14.10;65.10;;;;;;5058959;28;20212;-89
2022/05/22 04:27:56;;;;;;;11.50;4.83;;;14.10;65.20;;;;;;5060502;28;20206;-88
2022/05/22 04:30:27;;;;;;;7.30;3.57;;;14.10;66.10;;;;;;5059813;28;20200;-88
2022/05/22 04:33:00;;;;;;;9.23;3.97;;;14.10;66.20;;;;;;5061157;28;20238;-88
2022/05/22 04:35:29;;;;;;;8.83;4.23;;;14.20;67.00;;;;;;5056845;28;20229;-88
2022/05/22 04:38:02;;;;;;;10.43;4.97;;;14.20;66.80;;;;;;5056971;28;20210;-88
2022/05/22 04:40:30;;;;;;;8.07;4.17;;;14.20;67.40;;;;;;5070862;28;20215;-89
2022/05/22 04:43:02;;;;;;;7.90;3.57;;;14.10;67.00;;;;;;5072599;28;20230;-89
2022/05/22 04:45:33;;;;;;;11.47;4.93;;;14.10;67.40;;;;;;5068685;28;20209;-89
2022/05/22 04:48:01;;;;;;;8.70;3.80;;;14.10;67.50;;;;;;5059736;28;20203;-89
2022/05/22 04:50:33;;;;;;;8.60;4.20;;;14.10;66.90;;;;;;5060153;28;20225;-89
2022/05/22 04:55:48;;;;;;;10.20;4.90;;;14.20;67.30;;;;;;5057179;28;20207;-90
2022/05/22 04:58:17;;;;;;;9.70;4.80;;;14.20;67.50;;;;;;5057063;28;20908;-88
2022/05/22 05:00:50;;;;;;;11.73;4.90;;;14.30;68.00;;;;;;5057899;28;20231;-88
2022/05/22 05:03:17;;;;;;;8.40;3.93;;;14.30;67.60;;;;;;5058458;28;20227;-89
2022/05/22 05:05:53;;;;;;;11.03;4.57;;;14.30;67.10;;;;;;5054740;28;20203;-88
2022/05/22 05:08:22;;;;;;;9.17;4.17;;;14.30;68.30;;;;;;5051887;28;20203;-88
2022/05/22 05:10:51;;;;;;;8.90;4.17;;;14.40;68.50;;;;;;5057377;28;20219;-89
2022/05/22 05:13:21;;;;;;;14.93;5.87;;;14.40;67.70;;;;;;5058946;28;20215;-90
2022/05/22 05:15:59;;;;;;;13.07;4.60;;;14.40;68.00;;;;;;5057762;28;20277;-90
2022/05/22 05:18:26;;;;;;;8.53;4.40;;;14.40;68.30;;;;;;5059064;28;20213;-89
2022/05/22 05:20:56;;;;;;;9.73;4.63;;;14.50;67.90;;;;;;5058034;28;20215;-89
2022/05/22 05:23:24;;;;;;;9.37;4.53;;;14.50;67.90;;;;;;5057984;28;20213;-89
2022/05/22 05:25:51;;;;;;;11.90;5.23;;;14.50;68.10;;;;;;5056269;28;20195;-87
2022/05/22 05:28:18;;;;;;;11.33;4.97;;;14.60;68.40;;;;;;5056105;28;20203;-89
2022/05/22 05:30:47;;;;;;;8.27;4.23;;;14.60;68.40;;;;;;5055353;28;20197;-88
2022/05/22 05:33:15;;;;;;;9.53;3.90;;;14.60;68.80;;;;;;5056131;28;20212;-89
2022/05/22 05:35:46;;;;;;;9.70;4.37;;;14.60;68.70;;;;;;5056074;28;20228;-90
2022/05/22 05:38:19;;;;;;;10.97;4.27;;;14.70;69.50;;;;;;5044013;28;20214;-89
2022/05/22 05:40:50;;;;;;;7.57;4.13;;;14.70;69.60;;;;;;5055781;28;20201;-88
2022/05/22 05:43:21;;;;;;;10.97;5.10;;;14.80;70.10;;;;;;5035074;28;20378;-90
2022/05/22 05:46:07;;;;;;;8.50;4.13;;;14.80;70.50;;;;;;5042800;28;20217;-90
2022/05/22 05:48:37;;;;;;;9.23;4.50;;;14.80;70.70;;;;;;5046266;28;20235;-90
2022/05/22 05:53:50;;;;;;;9.77;4.23;;;14.90;69.60;;;;;;5061067;28;20211;-89
2022/05/22 05:56:21;;;;;;;8.43;3.97;;;14.90;69.30;;;;;;5057259;28;20680;-89
2022/05/22 05:58:48;;;;;;;10.23;4.87;;;15.00;69.60;;;;;;5061223;28;20201;-87
2022/05/22 06:01:24;;;;;;;10.80;5.63;;;15.00;69.40;;;;;;5060929;28;20200;-90
2022/05/22 06:03:51;;;;;;;12.33;5.43;;;15.10;70.10;;;;;;5061026;28;20188;-89
2022/05/22 06:06:19;;;;;;;8.53;4.77;;;15.10;69.60;;;;;;5060669;28;20281;-88
2022/05/22 06:08:47;;;;;;;13.77;5.70;;;15.20;69.70;;;;;;5059067;28;20664;-90
2022/05/22 06:11:15;;;;;;;13.70;5.37;;;15.20;69.80;;;;;;5051528;28;20235;-91
2022/05/22 06:13:42;;;;;;;19.30;7.50;;;15.20;70.10;;;;;;5051609;28;20289;-91
2022/05/22 06:16:10;;;;;;;13.17;6.03;;;15.30;70.00;;;;;;5055030;28;20323;-89
2022/05/22 06:18:39;;;;;;;14.03;6.70;;;15.30;70.90;;;;;;5053692;28;20243;-89
2022/05/22 06:21:10;;;;;;;15.73;7.13;;;15.30;70.40;;;;;;5049905;28;20294;-89
2022/05/22 06:23:38;;;;;;;13.53;5.60;;;15.40;70.90;;;;;;5050434;28;20209;-89
2022/05/22 06:26:06;;;;;;;16.67;5.80;;;15.50;70.50;;;;;;5049795;28;20670;-88
2022/05/22 06:28:35;;;;;;;21.40;8.43;;;15.50;70.80;;;;;;5050167;28;20189;-88
2022/05/22 06:31:03;;;;;;;14.00;5.87;;;15.50;71.20;;;;;;5042707;28;20292;-88
2022/05/22 06:33:31;;;;;;;16.53;6.53;;;15.60;71.10;;;;;;5052186;28;20197;-92
2022/05/22 06:36:06;;;;;;;12.23;5.57;;;15.60;71.80;;;;;;5049030;28;20315;-89
2022/05/22 06:41:17;;;;;;;22.93;7.53;;;15.80;71.60;;;;;;5052514;28;20200;-88
2022/05/22 06:43:46;;;;;;;12.40;5.87;;;15.90;71.80;;;;;;5051052;28;20239;-90
2022/05/22 06:46:14;;;;;;;14.47;6.37;;;16.00;72.00;;;;;;5050891;28;20202;-93
2022/05/22 06:48:41;;;;;;;12.93;5.37;;;16.00;72.00;;;;;;5051431;28;20215;-90
2022/05/22 06:51:09;;;;;;;18.30;5.90;;;16.10;71.20;;;;;;5050665;28;20237;-87
2022/05/22 06:53:36;;;;;;;11.00;4.53;;;16.20;71.20;;;;;;5051558;28;20300;-89
2022/05/22 06:56:03;;;;;;;9.93;5.10;;;16.20;70.90;;;;;;5046164;28;20212;-91
2022/05/22 06:58:30;;;;;;;15.77;6.17;;;16.40;70.80;;;;;;5050287;28;20203;-88
2022/05/22 07:00:57;;;;;;;11.13;4.73;;;16.40;70.60;;;;;;5050321;28;20634;-89
2022/05/22 07:03:25;;;;;;;8.77;4.97;;;16.50;70.70;;;;;;5050533;28;20966;-92
2022/05/22 07:05:52;;;;;;;18.17;6.37;;;16.60;71.00;;;;;;5049506;28;20661;-88
2022/05/22 07:08:27;;;;;;;9.73;4.30;;;16.70;70.60;;;;;;5054260;28;20241;-89
2022/05/22 07:13:40;;;;;;;15.47;6.70;;;16.80;70.00;;;;;;5041204;28;20256;-91
2022/05/22 07:16:08;;;;;;;14.60;5.20;;;16.90;69.80;;;;;;5042540;28;20262;-91
2022/05/22 07:18:35;;;;;;;12.27;5.40;;;17.00;70.00;;;;;;5043122;28;20210;-89
2022/05/22 07:21:03;;;;;;;14.07;5.13;;;17.10;69.70;;;;;;5051462;28;20218;-89
2022/05/22 07:23:32;;;;;;;10.47;4.87;;;17.20;69.60;;;;;;5051572;28;20279;-89
2022/05/22 07:25:59;;;;;;;13.17;4.40;;;17.30;69.60;;;;;;5050131;28;20940;-90
2022/05/22 07:28:26;;;;;;;10.10;4.53;;;17.30;69.10;;;;;;5049184;28;20615;-89
2022/05/22 07:30:59;;;;;;;13.53;4.60;;;17.40;69.00;;;;;;5049192;28;20250;-90
2022/05/22 07:33:26;;;;;;;10.17;4.17;;;17.60;68.00;;;;;;5057179;28;20230;-90
2022/05/22 07:35:55;;;;;;;11.67;4.73;;;17.60;67.10;;;;;;5054344;28;20257;-91
2022/05/22 07:38:23;;;;;;;12.87;4.87;;;17.70;66.70;;;;;;5055668;28;20199;-91
2022/05/22 07:40:54;;;;;;;14.80;4.63;;;17.80;66.50;;;;;;5056435;28;20256;-91
2022/05/22 07:43:22;;;;;;;15.37;5.43;;;17.90;65.70;;;;;;5054953;28;20207;-95
2022/05/22 07:45:55;;;;;;;6.53;2.73;;;18.00;64.90;;;;;;5056727;28;20317;-89
2022/05/22 07:48:23;;;;;;;8.53;3.50;;;18.10;63.70;;;;;;5057011;28;20200;-89
2022/05/22 07:50:57;;;;;;;6.70;2.73;;;18.20;64.20;;;;;;5058024;28;20272;-94
2022/05/22 07:53:27;;;;;;;8.13;3.10;;;18.20;63.30;;;;;;5059600;28;20206;-93
2022/05/22 07:55:56;;;;;;;6.43;3.17;;;18.30;63.10;;;;;;5059005;28;20218;-91
2022/05/22 07:58:25;;;;;;;9.80;4.53;;;18.40;63.40;;;;;;5052620;28;20203;-89
2022/05/22 08:00:53;;;;;;;9.63;4.00;;;18.50;63.60;;;;;;5050715;28;20671;-91
2022/05/22 08:03:22;;;;;;;8.87;4.27;;;18.60;63.80;;;;;;5050244;28;20238;-91
2022/05/22 08:05:51;;;;;;;14.90;4.60;;;18.60;64.20;;;;;;5053918;28;20222;-90
2022/05/22 08:08:18;;;;;;;11.93;4.27;;;18.70;63.60;;;;;;5053784;28;20200;-90
2022/05/22 08:10:46;;;;;;;10.23;4.00;;;18.80;63.30;;;;;;5053112;28;20255;-91
2022/05/22 08:13:24;;;;;;;13.93;4.37;;;18.90;63.10;;;;;;5049875;28;20220;-90
2022/05/22 08:15:51;;;;;;;11.17;4.00;;;19.00;63.00;;;;;;5048425;28;20326;-90
2022/05/22 08:18:18;;;;;;;11.43;4.57;;;19.00;62.90;;;;;;5048281;28;21029;-90
2022/05/22 08:20:49;;;;;;;8.73;4.03;;;19.20;63.20;;;;;;5052510;28;20629;-89
2022/05/22 08:23:19;;;;;;;9.57;4.17;;;19.30;62.90;;;;;;5052238;28;20739;-89
2022/05/22 08:25:47;;;;;;;13.63;5.27;;;19.40;62.20;;;;;;5053085;28;20204;-91
2022/05/22 08:28:16;;;;;;;14.30;5.30;;;19.50;62.80;;;;;;5052962;28;20314;-91
2022/05/22 08:30:44;;;;;;;12.63;4.77;;;19.50;62.40;;;;;;5053073;28;20554;-91
2022/05/22 08:33:11;;;;;;;9.13;4.50;;;19.60;62.80;;;;;;5053099;28;20209;-91
2022/05/22 08:35:40;;;;;;;11.93;4.97;;;19.70;62.50;;;;;;5047564;28;20252;-92
2022/05/22 08:38:08;;;;;;;9.03;4.17;;;19.90;63.00;;;;;;5059164;28;20223;-91
2022/05/22 08:40:45;;;;;;;14.43;5.27;;;20.00;63.70;;;;;;5054038;28;20235;-90
2022/05/22 08:43:24;;;;;;;10.37;4.93;;;20.20;63.50;;;;;;5060855;28;20188;-96
2022/05/22 08:45:59;;;;;;;9.97;4.87;;;20.40;62.90;;;;;;5060205;28;20211;-95
2022/05/22 08:48:33;;;;;;;10.07;5.57;;;20.60;62.40;;;;;;5053881;28;20271;-93
2022/05/22 08:51:01;;;;;;;13.63;5.17;;;20.80;62.80;;;;;;5056590;28;20204;-90
2022/05/22 08:53:35;;;;;;;11.30;5.60;;;21.00;63.00;;;;;;5051407;28;20544;-91
2022/05/22 08:59:00;;;;;;;10.20;4.93;;;21.50;62.70;;;;;;5060365;28;20199;-93
2022/05/22 09:01:36;;;;;;;11.37;4.83;;;21.70;61.80;;;;;;5057247;28;20287;-92
2022/05/22 09:04:13;;;;;;;8.70;5.13;;;22.00;62.10;;;;;;5056437;28;20220;-92
2022/05/22 09:06:45;;;;;;;10.20;4.97;;;22.30;61.00;;;;;;5056589;28;20210;-90
2022/05/22 09:09:12;;;;;;;13.07;5.67;;;22.50;61.00;;;;;;5052007;28;20794;-91
2022/05/22 09:11:55;;;;;;;10.70;4.87;;;22.70;60.60;;;;;;5057605;28;20204;-93
2022/05/22 09:14:29;;;;;;;14.87;6.50;;;23.00;60.00;;;;;;5052070;28;20250;-94
2022/05/22 09:17:03;;;;;;;12.07;5.27;;;23.20;60.20;;;;;;5051440;28;20303;-92
2022/05/22 09:19:38;;;;;;;12.10;5.47;;;23.50;59.40;;;;;;5051876;28;20212;-94
2022/05/22 09:22:21;;;;;;;10.00;4.60;;;23.60;58.50;;;;;;5056651;28;20208;-91
2022/05/22 09:25:00;;;;;;;9.93;4.80;;;23.80;57.90;;;;;;5056200;28;20253;-94
2022/05/22 09:27:38;;;;;;;8.90;4.40;;;24.00;57.60;;;;;;5056523;28;20203;-93
2022/05/22 09:30:09;;;;;;;10.07;4.23;;;24.20;57.00;;;;;;5054658;28;20216;-93
2022/05/22 09:33:00;;;;;;;13.53;4.93;;;24.30;57.00;;;;;;5037667;28;20251;-90
2022/05/22 09:35:35;;;;;;;10.43;4.63;;;24.50;56.00;;;;;;5034040;28;20228;-92
2022/05/22 09:38:26;;;;;;;7.43;3.73;;;24.60;56.40;;;;;;5043742;28;20215;-95
2022/05/22 09:40:59;;;;;;;11.23;4.93;;;24.70;55.90;;;;;;5045787;28;20188;-95
2022/05/22 09:44:03;;;;;;;8.93;4.17;;;24.90;56.10;;;;;;5064558;28;20313;-92
2022/05/22 09:46:51;;;;;;;10.40;4.40;;;25.10;55.40;;;;;;5059375;28;20289;-91
2022/05/22 09:49:48;;;;;;;8.53;3.73;;;25.20;55.30;;;;;;5051726;28;20204;-93
2022/05/22 09:52:20;;;;;;;10.50;3.27;;;25.40;54.80;;;;;;5053815;28;20283;-91
2022/05/22 09:55:14;;;;;;;7.73;3.00;;;25.50;55.10;;;;;;5057516;28;20226;-91
2022/05/22 09:57:55;;;;;;;6.73;3.43;;;25.60;53.60;;;;;;5063010;28;20228;-94
2022/05/22 10:00:36;;;;;;;9.50;3.17;;;25.80;54.20;;;;;;5062793;28;20200;-93
2022/05/22 10:03:12;;;;;;;5.23;3.10;;;25.90;54.20;;;;;;5065953;28;20195;-93
2022/05/22 10:05:51;;;;;;;8.60;4.27;;;26.10;53.80;;;;;;5056993;28;20203;-95
2022/05/22 10:08:32;;;;;;;8.17;3.87;;;26.20;53.80;;;;;;5056180;28;20267;-92
2022/05/22 10:11:19;;;;;;;6.00;2.93;;;26.40;52.70;;;;;;5061634;28;20247;-96
2022/05/22 10:14:14;;;;;;;7.03;3.40;;;26.50;52.90;;;;;;5046088;28;20205;-91
2022/05/22 10:17:04;;;;;;;5.87;3.50;;;26.70;52.30;;;;;;5039816;28;20228;-92
2022/05/22 10:19:40;;;;;;;8.00;3.73;;;26.80;52.20;;;;;;5034051;28;20216;-95
2022/05/22 10:22:13;;;;;;;8.57;3.30;;;26.90;51.90;;;;;;5035679;28;20559;-92
2022/05/22 10:24:59;;;;;;;10.33;4.13;;;27.00;51.90;;;;;;5037870;28;20247;-92
2022/05/22 10:27:42;;;;;;;8.20;2.87;;;27.00;50.60;;;;;;5051608;28;20265;-93
2022/05/22 10:30:16;;;;;;;6.70;3.40;;;27.20;50.90;;;;;;5050910;28;20215;-91
2022/05/22 10:32:47;;;;;;;6.93;3.13;;;27.30;51.30;;;;;;5051164;28;20188;-92
2022/05/22 10:35:24;;;;;;;6.93;3.03;;;27.30;51.00;;;;;;5049862;28;20529;-91
2022/05/22 10:37:56;;;;;;;5.37;2.93;;;27.50;50.40;;;;;;5050135;28;20292;-91
2022/05/22 10:42:44;;;;;;;6.77;3.43;;;27.50;50.00;;;;;;5049480;28;20239;-91
2022/05/22 10:43:13;;;;;;;8.90;3.43;;;27.70;50.00;;;;;;5050105;28;20206;-92
2022/05/22 10:45:40;;;;;;;7.73;3.50;;;27.70;50.00;;;;;;5044866;28;20290;-92
2022/05/22 10:48:11;;;;;;;7.03;3.43;;;27.80;50.20;;;;;;5048324;28;20215;-92
2022/05/22 10:50:51;;;;;;;10.27;4.43;;;27.90;49.50;;;;;;5049706;28;20219;-91
2022/05/22 10:53:30;;;;;;;9.80;3.60;;;27.90;49.10;;;;;;5049205;28;20605;-92
2022/05/22 10:56:02;;;;;;;8.80;3.40;;;28.00;47.90;;;;;;5050133;28;20365;-91
2022/05/22 10:58:30;;;;;;;7.47;3.53;;;28.10;48.20;;;;;;5051471;28;20991;-91
2022/05/22 11:01:00;;;;;;;6.30;3.53;;;28.20;48.40;;;;;;5052073;28;20208;-93
2022/05/22 11:03:30;;;;;;;9.90;3.97;;;28.30;48.10;;;;;;5045829;28;20264;-92
2022/05/22 11:06:04;;;;;;;5.97;3.57;;;28.30;48.40;;;;;;5050414;28;20649;-92
2022/05/22 11:08:34;;;;;;;7.80;3.17;;;28.40;48.00;;;;;;5049698;28;20658;-91
2022/05/22 11:11:16;;;;;;;9.03;2.80;;;28.50;47.60;;;;;;5049485;28;20283;-91
2022/05/22 11:13:45;;;;;;;5.60;3.37;;;28.60;45.50;;;;;;5052615;28;20270;-91
2022/05/22 11:16:14;;;;;;;8.77;3.23;;;28.70;46.70;;;;;;5053240;28;20301;-91
2022/05/22 11:18:42;;;;;;;9.20;4.13;;;28.70;46.60;;;;;;5055258;28;20240;-90
2022/05/22 11:21:23;;;;;;;6.97;3.57;;;28.80;47.20;;;;;;5053002;28;20208;-92
2022/05/22 11:24:06;;;;;;;9.27;3.87;;;28.80;45.60;;;;;;5052699;28;20537;-92
2022/05/22 11:26:44;;;;;;;5.10;2.97;;;28.90;45.40;;;;;;5050702;28;20283;-91
2022/05/22 11:29:38;;;;;;;7.67;3.93;;;28.90;46.00;;;;;;5052017;28;20275;-89
2022/05/22 11:32:16;;;;;;;5.47;3.23;;;29.00;44.80;;;;;;5032358;28;20283;-91
2022/05/22 11:35:06;;;;;;;8.80;3.47;;;29.00;44.50;;;;;;5049074;28;20224;-91
2022/05/22 11:37:43;;;;;;;4.77;2.20;;;29.00;43.90;;;;;;5053938;28;20319;-91
2022/05/22 11:40:22;;;;;;;6.23;3.03;;;29.10;44.50;;;;;;5062956;28;20291;-90
2022/05/22 11:42:59;;;;;;;4.57;2.47;;;29.10;43.70;;;;;;5056099;28;20214;-92
2022/05/22 11:45:37;;;;;;;5.27;2.60;;;29.10;44.60;;;;;;5054642;28;20217;-91
2022/05/22 11:48:27;;;;;;;4.93;2.53;;;29.20;44.40;;;;;;5054604;28;20212;-91
2022/05/22 11:51:03;;;;;;;10.67;3.93;;;29.30;44.40;;;;;;5051849;28;20430;-90
2022/05/22 11:53:57;;;;;;;6.97;3.47;;;29.30;44.50;;;;;;5055317;28;20723;-90
2022/05/22 11:56:45;;;;;;;9.13;3.10;;;29.40;44.10;;;;;;5053221;28;20251;-91
2022/05/22 11:59:32;;;;;;;5.00;1.70;;;29.50;43.90;;;;;;5057519;28;20236;-92
2022/05/22 12:02:13;;;;;;;2.23;1.50;;;29.50;44.10;;;;;;5071420;28;20209;-95
2022/05/22 12:05:05;;;;;;;4.07;1.77;;;29.60;43.00;;;;;;5072424;28;20204;-95
2022/05/22 12:07:49;;;;;;;7.27;2.93;;;29.70;43.10;;;;;;5057784;28;20220;-94
2022/05/22 12:10:26;;;;;;;4.30;2.30;;;29.80;43.20;;;;;;5051761;28;20270;-91
2022/05/22 12:12:59;;;;;;;5.37;2.83;;;29.80;42.80;;;;;;5049692;28;20200;-93
2022/05/22 12:15:37;;;;;;;4.03;2.00;;;29.90;42.00;;;;;;5054285;28;20261;-94
2022/05/22 12:18:21;;;;;;;6.72;2.40;;;30.00;41.50;;;;;;5059867;28;20211;-91
2022/05/22 12:20:54;;;;;;;5.50;2.72;;;30.10;40.90;;;;;;5074154;28;20242;-93
2022/05/22 12:23:30;;;;;;;8.40;1.90;;;30.20;42.00;;;;;;5071796;28;20259;-94
2022/05/22 12:26:01;;;;;;;7.55;3.75;;;30.30;41.80;;;;;;5063614;28;20621;-92
2022/05/22 12:28:43;;;;;;;4.63;2.20;;;30.40;41.10;;;;;;5061058;28;20230;-96
2022/05/22 12:31:16;;;;;;;7.40;2.97;;;30.40;40.30;;;;;;5072223;28;20180;-94
2022/05/22 12:33:49;;;;;;;4.72;2.17;;;30.50;41.30;;;;;;5064798;28;20704;-96
2022/05/22 12:36:22;;;;;;;6.68;2.60;;;30.60;41.60;;;;;;5052218;28;20212;-95
2022/05/22 12:38:59;;;;;;;5.03;2.58;;;30.60;41.60;;;;;;5056864;28;20204;-96
2022/05/22 12:41:53;;;;;;;7.13;3.22;;;30.70;40.80;;;;;;5055666;28;20234;-95
2022/05/22 12:44:22;;;;;;;8.88;3.83;;;30.70;40.00;;;;;;5055336;28;20239;-95
2022/05/22 12:46:50;;;;;;;8.43;3.28;;;30.70;40.80;;;;;;5054707;28;20231;-94
2022/05/22 12:49:25;;;;;;;6.53;3.22;;;30.70;40.80;;;;;;5053437;28;20200;-94
2022/05/22 12:52:02;;;;;;;10.90;5.35;;;30.70;40.30;;;;;;5044611;28;20202;-95
2022/05/22 12:54:31;;;;;;;6.25;3.25;;;30.70;40.30;;;;;;5047240;28;20286;-95
2022/05/22 12:57:17;;;;;;;9.35;4.20;;;30.70;40.40;;;;;;5057704;28;20220;-93
2022/05/22 12:59:53;;;;;;;11.45;5.53;;;30.70;39.80;;;;;;5056257;28;20188;-90
2022/05/22 13:02:38;;;;;;;6.55;3.40;;;30.70;40.10;;;;;;5047265;28;20769;-89
2022/05/22 13:05:16;;;;;;;6.50;3.38;;;30.60;40.00;;;;;;5048869;28;20200;-91
2022/05/22 13:07:43;;;;;;;10.20;5.18;;;30.60;40.10;;;;;;5050234;28;20211;-89
2022/05/22 13:10:30;;;;;;;8.90;4.45;;;30.70;41.00;;;;;;5058121;28;20231;-90
2022/05/22 13:13:08;;;;;;;6.43;4.15;;;30.70;40.50;;;;;;5055454;28;20199;-91
2022/05/22 13:15:39;;;;;;;8.43;4.05;;;30.80;40.50;;;;;;5057268;28;20562;-91
2022/05/22 13:18:15;;;;;;;7.78;4.63;;;30.90;40.90;;;;;;5067095;28;20228;-92
2022/05/22 13:20:51;;;;;;;4.57;3.28;;;30.90;40.70;;;;;;5064832;28;20295;-94
2022/05/22 13:23:39;;;;;;;6.63;3.20;;;31.00;40.00;;;;;;5063625;28;20202;-96
2022/05/22 13:26:24;;;;;;;7.50;3.55;;;31.10;40.20;;;;;;5062554;28;20191;-91
2022/05/22 13:28:59;;;;;;;7.03;3.75;;;31.10;40.40;;;;;;5059756;28;20653;-91
2022/05/22 13:31:43;;;;;;;7.70;4.18;;;31.20;40.40;;;;;;5058559;28;20264;-92
2022/05/22 13:34:23;;;;;;;7.93;4.10;;;31.30;40.60;;;;;;5063402;28;20306;-93